Time,TemperatureF,DewpointF,PressureIn,WindDirection,WindDirectionDegrees,WindSpeedMPH,WindSpeedGustMPH,Humidity,HourlyPrecipIn,Conditions,Clouds,dailyrainin,SoftwareType,DateUTC
2013-11-18 00:07:00,45.3,39.0,29.95,West,278,3.0,6.0,79,0.00,,,0.10,weatherlink.com 1.10,2013-11-18 06:07:00,
2013-11-18 00:22:00,45.2,39.0,29.95,West,275,3.0,7.0,79,0.00,,,0.10,weatherlink.com 1.10,2013-11-18 06:22:00,
2013-11-18 00:37:00,45.2,39.0,29.96,WNW,287,5.0,8.0,79,0.00,,,0.10,weatherlink.com 1.10,2013-11-18 06:37:00,
2013-11-18 00:53:00,44.6,39.0,29.97,West,281,6.0,8.0,81,0.00,,,0.10,weatherlink.com 1.10,2013-11-18 06:53:00,
2013-11-18 01:08:00,43.9,39.0,29.98,West,276,6.0,7.0,82,0.00,,,0.00,weatherlink.com 1.10,2013-11-18 07:08:00,
2013-11-18 01:23:00,43.3,39.0,29.98,West,279,4.0,7.0,83,0.00,,,0.00,weatherlink.com 1.10,2013-11-18 07:23:00,
2013-11-18 01:38:00,43.1,39.0,29.99,West,270,3.0,6.0,84,0.00,,,0.00,weatherlink.com 1.10,2013-11-18 07:38:00,
2013-11-18 01:53:00,42.9,38.0,29.99,West,270,2.0,4.0,84,0.00,,,0.00,weatherlink.com 1.10,2013-11-18 07:53:00,
2013-11-18 02:08:00,43.3,38.0,29.99,West,270,2.0,5.0,82,0.00,,,0.00,weatherlink.com 1.10,2013-11-18 08:08:00,
2013-11-18 02:23:00,42.5,38.0,29.99,West,272,2.0,2.0,84,0.00,,,0.00,weatherlink.com 1.10,2013-11-18 08:23:00,
2013-11-18 02:38:00,41.3,37.0,29.99,West,277,2.0,3.0,86,0.00,,,0.00,weatherlink.com 1.10,2013-11-18 08:38:00,
2013-11-18 02:53:00,41.1,38.0,30.00,West,276,2.0,3.0,87,0.00,,,0.00,weatherlink.com 1.10,2013-11-18 08:53:00,
2013-11-18 03:08:00,40.9,37.0,29.99,West,275,2.0,2.0,87,0.00,,,0.00,weatherlink.com 1.10,2013-11-18 09:08:00,
2013-11-18 03:23:00,41.1,38.0,30.00,West,272,2.0,3.0,87,0.00,,,0.00,weatherlink.com 1.10,2013-11-18 09:23:00,
2013-11-18 03:38:00,41.0,37.0,30.00,West,280,2.0,3.0,87,0.00,,,0.00,weatherlink.com 1.10,2013-11-18 09:38:00,
2013-11-18 03:53:00,40.6,37.0,30.01,West,275,1.0,2.0,88,0.00,,,0.00,weatherlink.com 1.10,2013-11-18 09:53:00,
2013-11-18 04:08:00,39.8,37.0,30.02,West,260,2.0,3.0,89,0.00,,,0.00,weatherlink.com 1.10,2013-11-18 10:08:00,
2013-11-18 04:23:00,40.2,37.0,30.02,West,270,3.0,5.0,89,0.00,,,0.00,weatherlink.com 1.10,2013-11-18 10:23:00,
2013-11-18 04:38:00,40.5,37.0,30.03,West,280,3.0,6.0,88,0.00,,,0.00,weatherlink.com 1.10,2013-11-18 10:38:00,
2013-11-18 04:53:00,40.3,37.0,30.03,WNW,291,3.0,4.0,88,0.00,,,0.00,weatherlink.com 1.10,2013-11-18 10:53:00,
2013-11-18 05:08:00,40.0,37.0,30.03,West,280,2.0,5.0,89,0.00,,,0.00,weatherlink.com 1.10,2013-11-18 11:08:00,
2013-11-18 05:23:00,39.6,37.0,30.05,West,276,3.0,5.0,89,0.00,,,0.00,weatherlink.com 1.10,2013-11-18 11:23:00,
2013-11-18 05:38:00,39.7,37.0,30.05,WNW,294,5.0,7.0,90,0.00,,,0.00,weatherlink.com 1.10,2013-11-18 11:38:00,
2013-11-18 05:53:00,39.4,37.0,30.05,WNW,295,4.0,6.0,89,0.00,,,0.00,weatherlink.com 1.10,2013-11-18 11:53:00,
2013-11-18 06:08:00,39.2,37.0,30.06,WNW,283,5.0,7.0,90,0.00,,,0.00,weatherlink.com 1.10,2013-11-18 12:08:00,
2013-11-18 06:24:00,39.1,37.0,30.07,West,264,7.0,8.0,90,0.00,,,0.00,weatherlink.com 1.10,2013-11-18 12:24:00,
2013-11-18 06:39:00,38.8,36.0,30.08,WNW,288,3.0,5.0,90,0.00,,,0.00,weatherlink.com 1.10,2013-11-18 12:39:00,
2013-11-18 06:54:00,38.5,36.0,30.09,WNW,295,3.0,7.0,90,0.00,,,0.00,weatherlink.com 1.10,2013-11-18 12:54:00,
2013-11-18 07:09:00,37.9,36.0,30.09,West,275,4.0,5.0,92,0.00,,,0.00,weatherlink.com 1.10,2013-11-18 13:09:00,
2013-11-18 07:24:00,37.5,35.0,30.10,West,275,6.0,8.0,92,0.00,,,0.00,weatherlink.com 1.10,2013-11-18 13:24:00,
2013-11-18 07:39:00,38.0,36.0,30.11,West,277,5.0,9.0,91,0.00,,,0.00,weatherlink.com 1.10,2013-11-18 13:39:00,
2013-11-18 07:54:00,38.5,36.0,30.11,West,269,5.0,8.0,90,0.00,,,0.00,weatherlink.com 1.10,2013-11-18 13:54:00,
2013-11-18 08:09:00,39.7,37.0,30.12,West,278,5.0,10.0,88,0.00,,,0.00,weatherlink.com 1.10,2013-11-18 14:09:00,
2013-11-18 08:24:00,40.7,37.0,30.13,WNW,298,7.0,12.0,85,0.00,,,0.00,weatherlink.com 1.10,2013-11-18 14:24:00,
2013-11-18 08:39:00,41.6,37.0,30.14,WNW,297,9.0,10.0,82,0.00,,,0.00,weatherlink.com 1.10,2013-11-18 14:39:00,
2013-11-18 08:54:00,42.3,37.0,30.16,West,274,5.0,13.0,80,0.00,,,0.00,weatherlink.com 1.10,2013-11-18 14:54:00,
2013-11-18 09:09:00,42.8,36.0,30.16,WNW,302,7.0,14.0,77,0.00,,,0.00,weatherlink.com 1.10,2013-11-18 15:09:00,
2013-11-18 09:24:00,43.5,36.0,30.17,NW,319,11.0,14.0,75,0.00,,,0.00,weatherlink.com 1.10,2013-11-18 15:24:00,
2013-11-18 09:39:00,44.1,35.0,30.18,NW,323,5.0,15.0,71,0.00,,,0.00,weatherlink.com 1.10,2013-11-18 15:39:00,
2013-11-18 09:54:00,45.3,35.0,30.18,NW,315,4.0,12.0,67,0.00,,,0.00,weatherlink.com 1.10,2013-11-18 15:54:00,
2013-11-18 10:09:00,45.4,34.0,30.19,WNW,291,8.0,15.0,65,0.00,,,0.00,weatherlink.com 1.10,2013-11-18 16:09:00,
2013-11-18 10:24:00,45.7,34.0,30.19,NW,314,7.0,17.0,63,0.00,,,0.00,weatherlink.com 1.10,2013-11-18 16:24:00,
2013-11-18 10:40:00,46.6,34.0,30.20,NW,307,12.0,18.0,61,0.00,,,0.00,weatherlink.com 1.10,2013-11-18 16:40:00,
2013-11-18 10:54:00,47.1,34.0,30.20,NW,322,12.0,21.0,60,0.00,,,0.00,weatherlink.com 1.10,2013-11-18 16:54:00,
2013-11-18 11:09:00,47.7,32.0,30.20,WNW,295,3.0,16.0,55,0.00,,,0.00,weatherlink.com 1.10,2013-11-18 17:09:00,
2013-11-18 11:24:00,48.3,32.0,30.20,West,278,9.0,15.0,54,0.00,,,0.00,weatherlink.com 1.10,2013-11-18 17:24:00,
2013-11-18 11:55:00,48.9,32.0,30.20,NW,318,8.0,20.0,52,0.00,,,0.00,weatherlink.com 1.10,2013-11-18 17:55:00,
2013-11-18 12:10:00,49.6,31.0,30.20,WNW,288,10.0,21.0,49,0.00,,,0.00,weatherlink.com 1.10,2013-11-18 18:10:00,
2013-11-18 12:26:00,50.0,30.0,30.20,NW,321,6.0,17.0,46,0.00,,,0.00,weatherlink.com 1.10,2013-11-18 18:26:00,
2013-11-18 12:40:00,50.5,31.0,30.20,NNW,328,6.0,18.0,47,0.00,,,0.00,weatherlink.com 1.10,2013-11-18 18:40:00,
2013-11-18 12:55:00,51.1,30.0,30.20,WSW,252,14.0,16.0,45,0.00,,,0.00,weatherlink.com 1.10,2013-11-18 18:55:00,
2013-11-18 13:10:00,51.6,30.0,30.20,NNW,334,10.0,17.0,43,0.00,,,0.00,weatherlink.com 1.10,2013-11-18 19:10:00,
2013-11-18 13:25:00,51.7,29.0,30.20,NW,318,6.0,14.0,42,0.00,,,0.00,weatherlink.com 1.10,2013-11-18 19:25:00,
2013-11-18 13:40:00,51.7,28.0,30.20,WNW,282,6.0,17.0,40,0.00,,,0.00,weatherlink.com 1.10,2013-11-18 19:40:00,
2013-11-18 13:55:00,52.3,29.0,30.20,West,277,15.0,18.0,41,0.00,,,0.00,weatherlink.com 1.10,2013-11-18 19:55:00,
2013-11-18 14:10:00,52.5,29.0,30.20,NW,307,9.0,17.0,40,0.00,,,0.00,weatherlink.com 1.10,2013-11-18 20:10:00,
2013-11-18 14:25:00,52.7,28.0,30.20,North,359,4.0,15.0,39,0.00,,,0.00,weatherlink.com 1.10,2013-11-18 20:25:00,
2013-11-18 14:40:00,53.3,29.0,30.20,NW,326,4.0,10.0,39,0.00,,,0.00,weatherlink.com 1.10,2013-11-18 20:40:00,
2013-11-18 14:55:00,52.9,28.0,30.20,NW,314,5.0,13.0,39,0.00,,,0.00,weatherlink.com 1.10,2013-11-18 20:55:00,
2013-11-18 15:10:00,52.6,27.0,30.21,NW,311,5.0,14.0,38,0.00,,,0.00,weatherlink.com 1.10,2013-11-18 21:10:00,
2013-11-18 15:25:00,52.5,27.0,30.22,West,280,6.0,15.0,38,0.00,,,0.00,weatherlink.com 1.10,2013-11-18 21:25:00,
2013-11-18 15:40:00,52.5,27.0,30.22,WNW,285,3.0,11.0,38,0.00,,,0.00,weatherlink.com 1.10,2013-11-18 21:40:00,
2013-11-18 15:55:00,52.1,28.0,30.23,NW,324,3.0,11.0,39,0.00,,,0.00,weatherlink.com 1.10,2013-11-18 21:55:00,
2013-11-18 16:10:00,51.7,27.0,30.23,NNE,32,8.0,9.0,39,0.00,,,0.00,weatherlink.com 1.10,2013-11-18 22:10:00,
2013-11-18 16:25:00,51.0,28.0,30.23,NW,323,6.0,9.0,41,0.00,,,0.00,weatherlink.com 1.10,2013-11-18 22:25:00,
2013-11-18 16:40:00,50.2,28.0,30.23,NW,311,4.0,6.0,43,0.00,,,0.00,weatherlink.com 1.10,2013-11-18 22:40:00,
2013-11-18 16:55:00,49.0,28.0,30.23,NW,319,2.0,6.0,44,0.00,,,0.00,weatherlink.com 1.10,2013-11-18 22:55:00,
2013-11-18 17:10:00,48.4,28.0,30.23,NNE,24,3.0,7.0,45,0.00,,,0.00,weatherlink.com 1.10,2013-11-18 23:10:00,
2013-11-18 17:25:00,48.1,28.0,30.24,NNW,345,2.0,7.0,46,0.00,,,0.00,weatherlink.com 1.10,2013-11-18 23:25:00,
2013-11-18 17:40:00,47.7,28.0,30.24,North,357,2.0,6.0,47,0.00,,,0.00,weatherlink.com 1.10,2013-11-18 23:40:00,
2013-11-18 17:55:00,47.3,28.0,30.24,North,354,2.0,5.0,48,0.00,,,0.00,weatherlink.com 1.10,2013-11-18 23:55:00,
2013-11-18 18:10:00,47.1,28.0,30.25,NW,323,2.0,5.0,48,0.00,,,0.00,weatherlink.com 1.10,2013-11-19 00:10:00,
2013-11-18 18:25:00,46.8,28.0,30.25,North,4,2.0,4.0,48,0.00,,,0.00,weatherlink.com 1.10,2013-11-19 00:25:00,
2013-11-18 18:40:00,46.7,28.0,30.25,NNE,32,3.0,6.0,48,0.00,,,0.00,weatherlink.com 1.10,2013-11-19 00:40:00,
2013-11-18 18:55:00,46.5,28.0,30.26,NNE,32,3.0,5.0,48,0.00,,,0.00,weatherlink.com 1.10,2013-11-19 00:55:00,
2013-11-18 19:10:00,46.1,27.0,30.26,WSW,248,1.0,6.0,48,0.00,,,0.00,weatherlink.com 1.10,2013-11-19 01:10:00,
2013-11-18 19:25:00,45.8,27.0,30.27,NNW,328,1.0,4.0,49,0.00,,,0.00,weatherlink.com 1.10,2013-11-19 01:25:00,
2013-11-18 19:40:00,45.3,27.0,30.27,NW,311,2.0,2.0,50,0.00,,,0.00,weatherlink.com 1.10,2013-11-19 01:40:00,
2013-11-18 19:55:00,45.1,27.0,30.27,NNW,345,1.0,3.0,50,0.00,,,0.00,weatherlink.com 1.10,2013-11-19 01:55:00,
2013-11-18 20:10:00,44.8,27.0,30.27,NNW,327,1.0,3.0,51,0.00,,,0.00,weatherlink.com 1.10,2013-11-19 02:10:00,
2013-11-18 20:25:00,44.7,27.0,30.27,ENE,58,3.0,5.0,51,0.00,,,0.00,weatherlink.com 1.10,2013-11-19 02:25:00,
2013-11-18 20:40:00,44.3,27.0,30.28,NE,45,2.0,5.0,52,0.00,,,0.00,weatherlink.com 1.10,2013-11-19 02:40:00,
2013-11-18 20:55:00,44.0,27.0,30.28,ENE,78,5.0,9.0,52,0.00,,,0.00,weatherlink.com 1.10,2013-11-19 02:55:00,
2013-11-18 21:10:00,43.6,27.0,30.28,ENE,75,6.0,7.0,52,0.00,,,0.00,weatherlink.com 1.10,2013-11-19 03:10:00,
2013-11-18 21:25:00,43.1,26.0,30.29,NE,43,4.0,4.0,52,0.00,,,0.00,weatherlink.com 1.10,2013-11-19 03:25:00,
2013-11-18 21:40:00,42.3,27.0,30.29,WNW,293,1.0,2.0,54,0.00,,,0.00,weatherlink.com 1.10,2013-11-19 03:40:00,
2013-11-18 21:55:00,42.0,26.0,30.29,WNW,302,1.0,1.0,54,0.00,,,0.00,weatherlink.com 1.10,2013-11-19 03:55:00,
2013-11-18 22:10:00,41.7,26.0,30.29,NNE,27,0.0,3.0,54,0.00,,,0.00,weatherlink.com 1.10,2013-11-19 04:10:00,
2013-11-18 22:25:00,41.4,26.0,30.29,NW,311,1.0,2.0,55,0.00,,,0.00,weatherlink.com 1.10,2013-11-19 04:25:00,
2013-11-18 22:41:00,41.0,26.0,30.30,NNE,25,2.0,2.0,55,0.00,,,0.00,weatherlink.com 1.10,2013-11-19 04:41:00,
2013-11-18 22:56:00,41.5,26.0,30.30,NNE,25,1.0,5.0,54,0.00,,,0.00,weatherlink.com 1.10,2013-11-19 04:56:00,
2013-11-18 23:11:00,41.6,25.0,30.30,NNE,16,2.0,5.0,53,0.00,,,0.00,weatherlink.com 1.10,2013-11-19 05:11:00,
2013-11-18 23:26:00,41.4,25.0,30.31,NNE,29,2.0,4.0,53,0.00,,,0.00,weatherlink.com 1.10,2013-11-19 05:26:00,
2013-11-18 23:41:00,40.7,25.0,30.31,West,264,1.0,1.0,54,0.00,,,0.00,weatherlink.com 1.10,2013-11-19 05:41:00,
2013-11-18 23:56:00,40.3,25.0,30.31,WNW,287,0.0,1.0,55,0.00,,,0.00,weatherlink.com 1.10,2013-11-19 05:56:00,